sensor_id;sensor_type;location;lat;lon;timestamp;P1;durP1;ratioP1;P2;durP2;ratioP2
21038;SDS011;10678;51.002;4.786;2024-03-02T00:02:12;2.83;;;0.70;;
21038;SDS011;10678;51.002;4.786;2024-03-02T00:04:39;1.83;;;0.63;;
21038;SDS011;10678;51.002;4.786;2024-03-02T00:07:04;2.90;;;0.50;;
21038;SDS011;10678;51.002;4.786;2024-03-02T00:09:31;1.75;;;0.50;;
21038;SDS011;10678;51.002;4.786;2024-03-02T00:11:58;2.70;;;0.70;;
21038;SDS011;10678;51.002;4.786;2024-03-02T00:14:25;1.27;;;0.50;;
21038;SDS011;10678;51.002;4.786;2024-03-02T00:16:54;1.60;;;0.57;;
21038;SDS011;10678;51.002;4.786;2024-03-02T00:19:21;2.10;;;0.52;;
21038;SDS011;10678;51.002;4.786;2024-03-02T00:21:47;1.30;;;0.40;;
21038;SDS011;10678;51.002;4.786;2024-03-02T00:24:23;2.03;;;0.40;;
21038;SDS011;10678;51.002;4.786;2024-03-02T00:26:56;1.67;;;0.50;;
21038;SDS011;10678;51.002;4.786;2024-03-02T00:29:22;0.70;;;0.38;;
21038;SDS011;10678;51.002;4.786;2024-03-02T00:31:47;1.95;;;0.50;;
21038;SDS011;10678;51.002;4.786;2024-03-02T00:34:13;2.40;;;0.68;;
21038;SDS011;10678;51.002;4.786;2024-03-02T00:36:41;2.28;;;0.57;;
21038;SDS011;10678;51.002;4.786;2024-03-02T00:39:07;1.35;;;0.50;;
21038;SDS011;10678;51.002;4.786;2024-03-02T00:41:33;2.42;;;0.40;;
21038;SDS011;10678;51.002;4.786;2024-03-02T00:44:05;1.15;;;0.50;;
21038;SDS011;10678;51.002;4.786;2024-03-02T00:46:35;1.40;;;0.40;;
21038;SDS011;10678;51.002;4.786;2024-03-02T00:51:37;1.50;;;0.40;;
21038;SDS011;10678;51.002;4.786;2024-03-02T00:54:07;0.40;;;0.30;;
21038;SDS011;10678;51.002;4.786;2024-03-02T00:56:34;1.42;;;0.50;;
21038;SDS011;10678;51.002;4.786;2024-03-02T00:59:00;2.30;;;0.70;;
21038;SDS011;10678;51.002;4.786;2024-03-02T01:01:26;1.25;;;0.60;;
21038;SDS011;10678;51.002;4.786;2024-03-02T01:03:52;1.17;;;0.50;;
21038;SDS011;10678;51.002;4.786;2024-03-02T01:06:18;1.83;;;0.55;;
21038;SDS011;10678;51.002;4.786;2024-03-02T01:08:44;1.08;;;0.50;;
21038;SDS011;10678;51.002;4.786;2024-03-02T01:11:11;1.55;;;0.57;;
21038;SDS011;10678;51.002;4.786;2024-03-02T01:13:36;1.55;;;0.60;;
21038;SDS011;10678;51.002;4.786;2024-03-02T01:16:02;1.48;;;0.50;;
21038;SDS011;10678;51.002;4.786;2024-03-02T01:18:29;1.30;;;0.47;;
21038;SDS011;10678;51.002;4.786;2024-03-02T01:20:55;1.55;;;0.50;;
21038;SDS011;10678;51.002;4.786;2024-03-02T01:23:22;1.27;;;0.40;;
21038;SDS011;10678;51.002;4.786;2024-03-02T01:25:48;1.80;;;0.70;;
21038;SDS011;10678;51.002;4.786;2024-03-02T01:28:14;3.42;;;0.50;;
21038;SDS011;10678;51.002;4.786;2024-03-02T01:30:40;2.22;;;0.60;;
21038;SDS011;10678;51.002;4.786;2024-03-02T01:33:06;1.08;;;0.43;;
21038;SDS011;10678;51.002;4.786;2024-03-02T01:35:32;2.75;;;0.57;;
21038;SDS011;10678;51.002;4.786;2024-03-02T01:37:59;1.60;;;0.55;;
21038;SDS011;10678;51.002;4.786;2024-03-02T01:40:25;2.55;;;0.60;;
21038;SDS011;10678;51.002;4.786;2024-03-02T01:42:51;2.47;;;0.50;;
21038;SDS011;10678;51.002;4.786;2024-03-02T01:45:19;1.48;;;0.50;;
21038;SDS011;10678;51.002;4.786;2024-03-02T01:47:45;2.42;;;0.50;;
21038;SDS011;10678;51.002;4.786;2024-03-02T01:50:11;0.63;;;0.30;;
21038;SDS011;10678;51.002;4.786;2024-03-02T01:52:37;1.65;;;0.55;;
21038;SDS011;10678;51.002;4.786;2024-03-02T01:55:03;2.03;;;0.40;;
21038;SDS011;10678;51.002;4.786;2024-03-02T01:57:29;1.13;;;0.40;;
21038;SDS011;10678;51.002;4.786;2024-03-02T01:59:55;0.95;;;0.40;;
21038;SDS011;10678;51.002;4.786;2024-03-02T02:02:21;1.50;;;0.47;;
21038;SDS011;10678;51.002;4.786;2024-03-02T02:04:46;4.38;;;0.63;;
21038;SDS011;10678;51.002;4.786;2024-03-02T02:07:12;1.67;;;0.55;;
21038;SDS011;10678;51.002;4.786;2024-03-02T02:09:39;1.33;;;0.43;;
21038;SDS011;10678;51.002;4.786;2024-03-02T02:12:06;1.45;;;0.52;;
21038;SDS011;10678;51.002;4.786;2024-03-02T02:14:32;1.95;;;0.50;;
21038;SDS011;10678;51.002;4.786;2024-03-02T02:16:59;1.08;;;0.50;;
21038;SDS011;10678;51.002;4.786;2024-03-02T02:19:24;1.52;;;0.57;;
21038;SDS011;10678;51.002;4.786;2024-03-02T02:21:50;2.55;;;0.77;;
21038;SDS011;10678;51.002;4.786;2024-03-02T02:24:15;2.67;;;0.70;;
21038;SDS011;10678;51.002;4.786;2024-03-02T02:26:41;2.15;;;0.43;;
21038;SDS011;10678;51.002;4.786;2024-03-02T02:29:07;2.17;;;0.55;;
21038;SDS011;10678;51.002;4.786;2024-03-02T02:31:41;1.20;;;0.40;;
21038;SDS011;10678;51.002;4.786;2024-03-02T02:34:07;1.75;;;0.50;;
21038;SDS011;10678;51.002;4.786;2024-03-02T02:36:34;2.70;;;0.50;;
21038;SDS011;10678;51.002;4.786;2024-03-02T02:39:05;1.40;;;0.40;;
21038;SDS011;10678;51.002;4.786;2024-03-02T02:41:35;2.42;;;0.50;;
21038;SDS011;10678;51.002;4.786;2024-03-02T02:44:01;2.05;;;0.50;;
21038;SDS011;10678;51.002;4.786;2024-03-02T02:46:26;1.42;;;0.40;;
21038;SDS011;10678;51.002;4.786;2024-03-02T02:48:52;1.00;;;0.30;;
21038;SDS011;10678;51.002;4.786;2024-03-02T02:51:18;0.80;;;0.40;;
21038;SDS011;10678;51.002;4.786;2024-03-02T02:53:44;1.45;;;0.40;;
21038;SDS011;10678;51.002;4.786;2024-03-02T02:56:10;1.50;;;0.52;;
21038;SDS011;10678;51.002;4.786;2024-03-02T02:58:35;2.50;;;0.50;;
21038;SDS011;10678;51.002;4.786;2024-03-02T03:01:01;2.33;;;0.60;;
21038;SDS011;10678;51.002;4.786;2024-03-02T03:03:27;4.93;;;0.57;;
21038;SDS011;10678;51.002;4.786;2024-03-02T03:05:52;2.03;;;0.50;;
21038;SDS011;10678;51.002;4.786;2024-03-02T03:08:18;1.20;;;0.40;;
21038;SDS011;10678;51.002;4.786;2024-03-02T03:10:44;1.93;;;0.47;;
21038;SDS011;10678;51.002;4.786;2024-03-02T03:13:10;1.85;;;0.52;;
21038;SDS011;10678;51.002;4.786;2024-03-02T03:15:35;2.88;;;0.60;;
21038;SDS011;10678;51.002;4.786;2024-03-02T03:18:02;3.40;;;0.40;;
21038;SDS011;10678;51.002;4.786;2024-03-02T03:20:32;1.00;;;0.40;;
21038;SDS011;10678;51.002;4.786;2024-03-02T03:22:58;1.30;;;0.50;;
21038;SDS011;10678;51.002;4.786;2024-03-02T03:25:24;3.63;;;0.60;;
21038;SDS011;10678;51.002;4.786;2024-03-02T03:27:50;5.30;;;0.47;;
21038;SDS011;10678;51.002;4.786;2024-03-02T03:30:17;3.43;;;0.60;;
21038;SDS011;10678;51.002;4.786;2024-03-02T03:32:43;6.00;;;0.70;;
21038;SDS011;10678;51.002;4.786;2024-03-02T03:35:08;1.02;;;0.47;;
21038;SDS011;10678;51.002;4.786;2024-03-02T03:37:34;4.28;;;0.50;;
21038;SDS011;10678;51.002;4.786;2024-03-02T03:40:00;2.83;;;0.57;;
21038;SDS011;10678;51.002;4.786;2024-03-02T03:42:26;1.10;;;0.70;;
21038;SDS011;10678;51.002;4.786;2024-03-02T03:44:52;6.13;;;0.87;;
21038;SDS011;10678;51.002;4.786;2024-03-02T03:47:18;1.80;;;0.50;;
21038;SDS011;10678;51.002;4.786;2024-03-02T03:49:43;2.13;;;0.53;;
21038;SDS011;10678;51.002;4.786;2024-03-02T03:52:09;1.50;;;0.50;;
21038;SDS011;10678;51.002;4.786;2024-03-02T03:54:36;2.17;;;0.60;;
21038;SDS011;10678;51.002;4.786;2024-03-02T03:57:03;4.00;;;0.70;;
21038;SDS011;10678;51.002;4.786;2024-03-02T03:59:29;3.17;;;0.70;;
21038;SDS011;10678;51.002;4.786;2024-03-02T04:01:55;2.30;;;0.73;;
21038;SDS011;10678;51.002;4.786;2024-03-02T04:04:21;1.50;;;0.50;;
21038;SDS011;10678;51.002;4.786;2024-03-02T04:06:47;0.70;;;0.33;;
21038;SDS011;10678;51.002;4.786;2024-03-02T04:09:12;2.17;;;0.77;;
21038;SDS011;10678;51.002;4.786;2024-03-02T04:11:38;3.73;;;0.90;;
21038;SDS011;10678;51.002;4.786;2024-03-02T04:14:03;1.90;;;0.60;;
21038;SDS011;10678;51.002;4.786;2024-03-02T04:16:31;4.00;;;0.80;;
21038;SDS011;10678;51.002;4.786;2024-03-02T04:18:56;2.37;;;0.60;;
21038;SDS011;10678;51.002;4.786;2024-03-02T04:21:22;2.17;;;0.60;;
21038;SDS011;10678;51.002;4.786;2024-03-02T04:23:48;2.60;;;0.70;;
21038;SDS011;10678;51.002;4.786;2024-03-02T04:26:14;1.37;;;0.53;;
21038;SDS011;10678;51.002;4.786;2024-03-02T04:28:40;4.37;;;0.70;;
21038;SDS011;10678;51.002;4.786;2024-03-02T04:31:05;2.53;;;0.80;;
21038;SDS011;10678;51.002;4.786;2024-03-02T04:33:31;2.83;;;0.67;;
21038;SDS011;10678;51.002;4.786;2024-03-02T04:35:56;2.97;;;0.80;;
21038;SDS011;10678;51.002;4.786;2024-03-02T04:38:22;4.07;;;0.63;;
21038;SDS011;10678;51.002;4.786;2024-03-02T04:40:48;3.33;;;0.70;;
21038;SDS011;10678;51.002;4.786;2024-03-02T04:43:14;2.73;;;0.97;;
21038;SDS011;10678;51.002;4.786;2024-03-02T04:45:41;4.23;;;0.77;;
21038;SDS011;10678;51.002;4.786;2024-03-02T04:48:07;1.87;;;0.50;;
21038;SDS011;10678;51.002;4.786;2024-03-02T04:50:33;2.53;;;0.53;;
21038;SDS011;10678;51.002;4.786;2024-03-02T04:52:59;2.00;;;0.50;;
21038;SDS011;10678;51.002;4.786;2024-03-02T04:55:24;3.17;;;0.70;;
21038;SDS011;10678;51.002;4.786;2024-03-02T04:58:10;2.10;;;0.60;;
21038;SDS011;10678;51.002;4.786;2024-03-02T05:00:35;1.50;;;0.40;;
21038;SDS011;10678;51.002;4.786;2024-03-02T05:03:01;1.03;;;0.50;;
21038;SDS011;10678;51.002;4.786;2024-03-02T05:05:27;3.37;;;0.57;;
21038;SDS011;10678;51.002;4.786;2024-03-02T05:07:53;0.90;;;0.50;;
21038;SDS011;10678;51.002;4.786;2024-03-02T05:10:18;2.90;;;0.87;;
21038;SDS011;10678;51.002;4.786;2024-03-02T05:12:44;3.03;;;0.80;;
21038;SDS011;10678;51.002;4.786;2024-03-02T05:15:10;4.13;;;0.70;;
21038;SDS011;10678;51.002;4.786;2024-03-02T05:17:37;1.23;;;0.60;;
21038;SDS011;10678;51.002;4.786;2024-03-02T05:20:06;5.60;;;0.93;;
21038;SDS011;10678;51.002;4.786;2024-03-02T05:22:35;2.07;;;0.60;;
21038;SDS011;10678;51.002;4.786;2024-03-02T05:25:02;2.67;;;0.60;;
21038;SDS011;10678;51.002;4.786;2024-03-02T05:27:28;2.73;;;0.57;;
21038;SDS011;10678;51.002;4.786;2024-03-02T05:29:54;5.93;;;0.70;;
21038;SDS011;10678;51.002;4.786;2024-03-02T05:32:19;0.57;;;0.40;;
21038;SDS011;10678;51.002;4.786;2024-03-02T05:34:45;3.67;;;0.90;;
21038;SDS011;10678;51.002;4.786;2024-03-02T05:37:11;3.90;;;1.43;;
21038;SDS011;10678;51.002;4.786;2024-03-02T05:39:37;3.33;;;0.83;;
21038;SDS011;10678;51.002;4.786;2024-03-02T05:42:02;5.40;;;0.90;;
21038;SDS011;10678;51.002;4.786;2024-03-02T05:44:28;5.03;;;0.97;;
21038;SDS011;10678;51.002;4.786;2024-03-02T05:46:54;2.30;;;0.60;;
21038;SDS011;10678;51.002;4.786;2024-03-02T05:49:20;4.00;;;0.70;;
21038;SDS011;10678;51.002;4.786;2024-03-02T05:51:45;3.57;;;0.60;;
21038;SDS011;10678;51.002;4.786;2024-03-02T05:54:11;3.23;;;0.93;;
21038;SDS011;10678;51.002;4.786;2024-03-02T05:56:37;3.03;;;0.80;;
21038;SDS011;10678;51.002;4.786;2024-03-02T05:59:02;1.73;;;0.70;;
21038;SDS011;10678;51.002;4.786;2024-03-02T06:01:44;4.47;;;0.80;;
21038;SDS011;10678;51.002;4.786;2024-03-02T06:04:12;3.00;;;0.60;;
21038;SDS011;10678;51.002;4.786;2024-03-02T06:06:38;4.43;;;0.67;;
21038;SDS011;10678;51.002;4.786;2024-03-02T06:09:04;3.97;;;0.80;;
21038;SDS011;10678;51.002;4.786;2024-03-02T06:11:32;1.47;;;0.70;;
21038;SDS011;10678;51.002;4.786;2024-03-02T06:13:58;4.03;;;0.97;;
21038;SDS011;10678;51.002;4.786;2024-03-02T06:16:24;7.10;;;0.70;;
21038;SDS011;10678;51.002;4.786;2024-03-02T06:18:50;4.03;;;1.10;;
21038;SDS011;10678;51.002;4.786;2024-03-02T06:21:16;3.23;;;0.80;;
21038;SDS011;10678;51.002;4.786;2024-03-02T06:23:43;1.50;;;0.70;;
21038;SDS011;10678;51.002;4.786;2024-03-02T06:26:09;4.23;;;1.10;;
21038;SDS011;10678;51.002;4.786;2024-03-02T06:28:34;2.43;;;0.77;;
21038;SDS011;10678;51.002;4.786;2024-03-02T06:31:00;4.80;;;0.80;;
21038;SDS011;10678;51.002;4.786;2024-03-02T06:33:26;2.90;;;0.70;;
21038;SDS011;10678;51.002;4.786;2024-03-02T06:35:53;4.37;;;0.97;;
21038;SDS011;10678;51.002;4.786;2024-03-02T06:38:19;4.07;;;1.03;;
21038;SDS011;10678;51.002;4.786;2024-03-02T06:40:44;4.27;;;0.73;;
21038;SDS011;10678;51.002;4.786;2024-03-02T06:43:10;2.63;;;0.80;;
21038;SDS011;10678;51.002;4.786;2024-03-02T06:45:36;3.77;;;1.00;;
21038;SDS011;10678;51.002;4.786;2024-03-02T06:48:01;2.70;;;0.90;;
21038;SDS011;10678;51.002;4.786;2024-03-02T06:50:27;2.53;;;0.80;;
21038;SDS011;10678;51.002;4.786;2024-03-02T06:52:53;4.53;;;0.80;;
21038;SDS011;10678;51.002;4.786;2024-03-02T06:55:20;4.07;;;1.10;;
21038;SDS011;10678;51.002;4.786;2024-03-02T06:57:46;2.07;;;0.70;;
21038;SDS011;10678;51.002;4.786;2024-03-02T07:00:12;2.13;;;0.73;;
21038;SDS011;10678;51.002;4.786;2024-03-02T07:02:39;3.30;;;0.90;;
21038;SDS011;10678;51.002;4.786;2024-03-02T07:05:06;4.87;;;0.90;;
21038;SDS011;10678;51.002;4.786;2024-03-02T07:07:33;4.23;;;0.77;;
21038;SDS011;10678;51.002;4.786;2024-03-02T07:09:59;3.47;;;0.80;;
21038;SDS011;10678;51.002;4.786;2024-03-02T07:12:26;4.80;;;0.77;;
21038;SDS011;10678;51.002;4.786;2024-03-02T07:14:51;1.97;;;0.63;;
21038;SDS011;10678;51.002;4.786;2024-03-02T07:17:31;4.00;;;0.90;;
21038;SDS011;10678;51.002;4.786;2024-03-02T07:19:57;6.47;;;0.77;;
21038;SDS011;10678;51.002;4.786;2024-03-02T07:22:23;4.83;;;1.10;;
21038;SDS011;10678;51.002;4.786;2024-03-02T07:24:49;6.40;;;1.00;;
21038;SDS011;10678;51.002;4.786;2024-03-02T07:27:15;4.53;;;0.90;;
21038;SDS011;10678;51.002;4.786;2024-03-02T07:29:42;6.30;;;1.70;;
21038;SDS011;10678;51.002;4.786;2024-03-02T07:32:08;4.30;;;1.60;;
21038;SDS011;10678;51.002;4.786;2024-03-02T07:34:34;6.63;;;1.77;;
21038;SDS011;10678;51.002;4.786;2024-03-02T07:37:00;6.07;;;1.47;;
21038;SDS011;10678;51.002;4.786;2024-03-02T07:39:26;6.47;;;1.57;;
21038;SDS011;10678;51.002;4.786;2024-03-02T07:41:52;2.40;;;1.00;;
21038;SDS011;10678;51.002;4.786;2024-03-02T07:44:18;4.27;;;1.00;;
21038;SDS011;10678;51.002;4.786;2024-03-02T07:46:47;3.73;;;1.10;;
21038;SDS011;10678;51.002;4.786;2024-03-02T07:49:16;4.03;;;1.00;;
21038;SDS011;10678;51.002;4.786;2024-03-02T07:51:42;3.97;;;1.03;;
21038;SDS011;10678;51.002;4.786;2024-03-02T07:54:08;4.07;;;0.87;;
21038;SDS011;10678;51.002;4.786;2024-03-02T07:56:34;9.80;;;1.27;;
21038;SDS011;10678;51.002;4.786;2024-03-02T07:59:01;4.20;;;1.00;;
21038;SDS011;10678;51.002;4.786;2024-03-02T08:01:27;8.70;;;1.07;;
21038;SDS011;10678;51.002;4.786;2024-03-02T08:03:55;2.50;;;0.73;;
21038;SDS011;10678;51.002;4.786;2024-03-02T08:06:23;5.23;;;0.60;;
21038;SDS011;10678;51.002;4.786;2024-03-02T08:08:56;1.67;;;0.90;;
21038;SDS011;10678;51.002;4.786;2024-03-02T08:11:22;7.93;;;1.40;;
21038;SDS011;10678;51.002;4.786;2024-03-02T08:13:48;4.67;;;0.80;;
21038;SDS011;10678;51.002;4.786;2024-03-02T08:16:14;2.43;;;1.00;;
21038;SDS011;10678;51.002;4.786;2024-03-02T08:18:41;3.03;;;0.57;;
21038;SDS011;10678;51.002;4.786;2024-03-02T08:21:07;2.33;;;0.80;;
21038;SDS011;10678;51.002;4.786;2024-03-02T08:23:33;2.27;;;0.83;;
21038;SDS011;10678;51.002;4.786;2024-03-02T08:25:59;1.73;;;0.63;;
21038;SDS011;10678;51.002;4.786;2024-03-02T08:28:25;3.03;;;0.75;;
21038;SDS011;10678;51.002;4.786;2024-03-02T08:30:50;2.85;;;0.90;;
21038;SDS011;10678;51.002;4.786;2024-03-02T08:33:16;4.82;;;0.93;;
21038;SDS011;10678;51.002;4.786;2024-03-02T08:35:41;5.18;;;0.98;;
21038;SDS011;10678;51.002;4.786;2024-03-02T08:38:07;2.90;;;0.90;;
21038;SDS011;10678;51.002;4.786;2024-03-02T08:40:33;3.00;;;0.93;;
21038;SDS011;10678;51.002;4.786;2024-03-02T08:42:58;4.53;;;0.85;;
21038;SDS011;10678;51.002;4.786;2024-03-02T08:45:24;3.20;;;0.88;;
21038;SDS011;10678;51.002;4.786;2024-03-02T08:47:50;6.30;;;1.08;;
21038;SDS011;10678;51.002;4.786;2024-03-02T08:50:15;5.18;;;1.27;;
21038;SDS011;10678;51.002;4.786;2024-03-02T08:52:41;4.20;;;1.20;;
21038;SDS011;10678;51.002;4.786;2024-03-02T08:55:07;7.30;;;1.08;;
21038;SDS011;10678;51.002;4.786;2024-03-02T08:57:33;5.65;;;1.00;;
21038;SDS011;10678;51.002;4.786;2024-03-02T08:59:59;4.93;;;1.25;;
21038;SDS011;10678;51.002;4.786;2024-03-02T09:02:25;7.03;;;1.30;;
21038;SDS011;10678;51.002;4.786;2024-03-02T09:04:51;4.75;;;1.13;;
21038;SDS011;10678;51.002;4.786;2024-03-02T09:07:17;7.25;;;0.90;;
21038;SDS011;10678;51.002;4.786;2024-03-02T09:09:43;4.18;;;0.82;;
21038;SDS011;10678;51.002;4.786;2024-03-02T09:12:08;3.97;;;1.10;;
21038;SDS011;10678;51.002;4.786;2024-03-02T09:14:34;6.07;;;0.98;;
21038;SDS011;10678;51.002;4.786;2024-03-02T09:17:02;7.93;;;0.93;;
21038;SDS011;10678;51.002;4.786;2024-03-02T09:19:28;4.63;;;1.10;;
21038;SDS011;10678;51.002;4.786;2024-03-02T09:21:54;5.18;;;0.90;;
21038;SDS011;10678;51.002;4.786;2024-03-02T09:24:20;4.82;;;1.02;;
21038;SDS011;10678;51.002;4.786;2024-03-02T09:26:46;3.95;;;0.90;;
21038;SDS011;10678;51.002;4.786;2024-03-02T09:29:12;4.13;;;0.70;;
21038;SDS011;10678;51.002;4.786;2024-03-02T09:31:41;5.97;;;1.10;;
21038;SDS011;10678;51.002;4.786;2024-03-02T09:34:08;5.05;;;1.00;;
21038;SDS011;10678;51.002;4.786;2024-03-02T09:36:33;5.80;;;1.00;;
21038;SDS011;10678;51.002;4.786;2024-03-02T09:38:59;4.15;;;1.02;;
21038;SDS011;10678;51.002;4.786;2024-03-02T09:41:25;8.13;;;0.98;;
21038;SDS011;10678;51.002;4.786;2024-03-02T09:43:50;5.95;;;1.15;;
21038;SDS011;10678;51.002;4.786;2024-03-02T09:46:16;5.22;;;0.80;;
21038;SDS011;10678;51.002;4.786;2024-03-02T09:48:44;3.67;;;0.70;;
21038;SDS011;10678;51.002;4.786;2024-03-02T09:51:10;5.30;;;1.00;;
21038;SDS011;10678;51.002;4.786;2024-03-02T09:53:36;5.50;;;1.10;;
21038;SDS011;10678;51.002;4.786;2024-03-02T09:56:02;4.88;;;0.90;;
21038;SDS011;10678;51.002;4.786;2024-03-02T09:58:29;7.32;;;1.45;;
21038;SDS011;10678;51.002;4.786;2024-03-02T10:00:55;4.60;;;0.80;;
21038;SDS011;10678;51.002;4.786;2024-03-02T10:03:22;6.78;;;1.20;;
21038;SDS011;10678;51.002;4.786;2024-03-02T10:05:49;6.35;;;1.15;;
21038;SDS011;10678;51.002;4.786;2024-03-02T10:08:15;3.95;;;0.93;;
21038;SDS011;10678;51.002;4.786;2024-03-02T10:10:41;5.93;;;1.17;;
21038;SDS011;10678;51.002;4.786;2024-03-02T10:13:08;9.43;;;1.30;;
21038;SDS011;10678;51.002;4.786;2024-03-02T10:15:38;3.95;;;0.80;;
21038;SDS011;10678;51.002;4.786;2024-03-02T10:18:11;7.57;;;1.20;;
21038;SDS011;10678;51.002;4.786;2024-03-02T10:20:37;5.07;;;0.95;;
21038;SDS011;10678;51.002;4.786;2024-03-02T10:23:10;8.68;;;1.15;;
21038;SDS011;10678;51.002;4.786;2024-03-02T10:25:38;7.28;;;1.20;;
21038;SDS011;10678;51.002;4.786;2024-03-02T10:28:03;3.80;;;1.05;;
21038;SDS011;10678;51.002;4.786;2024-03-02T10:30:35;5.75;;;1.10;;
21038;SDS011;10678;51.002;4.786;2024-03-02T10:33:01;4.15;;;0.80;;
21038;SDS011;10678;51.002;4.786;2024-03-02T10:35:28;3.28;;;0.88;;
21038;SDS011;10678;51.002;4.786;2024-03-02T10:37:53;5.65;;;1.20;;
21038;SDS011;10678;51.002;4.786;2024-03-02T10:40:22;6.63;;;1.17;;
21038;SDS011;10678;51.002;4.786;2024-03-02T10:42:49;7.22;;;0.95;;
21038;SDS011;10678;51.002;4.786;2024-03-02T10:45:19;4.82;;;0.77;;
21038;SDS011;10678;51.002;4.786;2024-03-02T10:47:48;5.70;;;0.95;;
21038;SDS011;10678;51.002;4.786;2024-03-02T10:50:15;5.03;;;0.98;;
21038;SDS011;10678;51.002;4.786;2024-03-02T10:52:40;3.63;;;0.73;;
21038;SDS011;10678;51.002;4.786;2024-03-02T10:55:07;6.15;;;0.80;;
21038;SDS011;10678;51.002;4.786;2024-03-02T10:57:41;3.78;;;1.00;;
21038;SDS011;10678;51.002;4.786;2024-03-02T11:00:14;3.50;;;0.85;;
21038;SDS011;10678;51.002;4.786;2024-03-02T11:02:46;4.88;;;1.00;;
21038;SDS011;10678;51.002;4.786;2024-03-02T11:08:05;4.63;;;0.82;;
21038;SDS011;10678;51.002;4.786;2024-03-02T11:10:34;3.30;;;1.10;;
21038;SDS011;10678;51.002;4.786;2024-03-02T11:13:05;4.28;;;0.93;;
21038;SDS011;10678;51.002;4.786;2024-03-02T11:15:34;5.03;;;0.90;;
21038;SDS011;10678;51.002;4.786;2024-03-02T11:18:01;7.00;;;1.42;;
21038;SDS011;10678;51.002;4.786;2024-03-02T11:20:31;6.55;;;1.05;;
21038;SDS011;10678;51.002;4.786;2024-03-02T11:22:57;7.80;;;1.27;;
21038;SDS011;10678;51.002;4.786;2024-03-02T11:25:31;5.53;;;1.20;;
21038;SDS011;10678;51.002;4.786;2024-03-02T11:28:00;3.75;;;1.33;;
21038;SDS011;10678;51.002;4.786;2024-03-02T11:33:05;3.55;;;0.70;;
21038;SDS011;10678;51.002;4.786;2024-03-02T11:35:41;5.93;;;1.10;;
21038;SDS011;10678;51.002;4.786;2024-03-02T11:38:10;4.55;;;1.05;;
21038;SDS011;10678;51.002;4.786;2024-03-02T11:40:36;5.35;;;0.90;;
21038;SDS011;10678;51.002;4.786;2024-03-02T11:43:05;4.03;;;0.82;;
21038;SDS011;10678;51.002;4.786;2024-03-02T11:45:32;3.55;;;0.77;;
21038;SDS011;10678;51.002;4.786;2024-03-02T11:47:58;5.35;;;0.60;;
21038;SDS011;10678;51.002;4.786;2024-03-02T11:50:31;4.80;;;0.75;;
21038;SDS011;10678;51.002;4.786;2024-03-02T11:52:59;5.60;;;1.23;;
21038;SDS011;10678;51.002;4.786;2024-03-02T11:55:25;4.65;;;0.90;;
21038;SDS011;10678;51.002;4.786;2024-03-02T11:57:54;5.45;;;1.00;;
21038;SDS011;10678;51.002;4.786;2024-03-02T12:00:20;4.30;;;0.95;;
21038;SDS011;10678;51.002;4.786;2024-03-02T12:02:46;5.28;;;0.90;;
21038;SDS011;10678;51.002;4.786;2024-03-02T12:05:24;3.20;;;0.70;;
21038;SDS011;10678;51.002;4.786;2024-03-02T12:07:55;7.97;;;0.98;;
21038;SDS011;10678;51.002;4.786;2024-03-02T12:10:25;4.93;;;0.68;;
21038;SDS011;10678;51.002;4.786;2024-03-02T12:13:00;5.43;;;0.77;;
21038;SDS011;10678;51.002;4.786;2024-03-02T12:15:34;3.92;;;0.77;;
21038;SDS011;10678;51.002;4.786;2024-03-02T12:18:04;4.00;;;0.80;;
21038;SDS011;10678;51.002;4.786;2024-03-02T12:20:30;3.75;;;0.73;;
21038;SDS011;10678;51.002;4.786;2024-03-02T12:22:58;4.07;;;0.80;;
21038;SDS011;10678;51.002;4.786;2024-03-02T12:25:25;3.05;;;0.60;;
21038;SDS011;10678;51.002;4.786;2024-03-02T12:27:55;4.05;;;0.90;;
21038;SDS011;10678;51.002;4.786;2024-03-02T12:30:26;4.28;;;0.80;;
21038;SDS011;10678;51.002;4.786;2024-03-02T12:32:54;3.10;;;0.70;;
21038;SDS011;10678;51.002;4.786;2024-03-02T12:35:19;5.82;;;1.00;;
21038;SDS011;10678;51.002;4.786;2024-03-02T12:37:49;4.45;;;0.63;;
21038;SDS011;10678;51.002;4.786;2024-03-02T12:40:16;5.10;;;1.20;;
21038;SDS011;10678;51.002;4.786;2024-03-02T12:42:43;5.45;;;1.00;;
21038;SDS011;10678;51.002;4.786;2024-03-02T12:45:09;5.72;;;0.90;;
21038;SDS011;10678;51.002;4.786;2024-03-02T12:47:35;3.28;;;1.05;;
21038;SDS011;10678;51.002;4.786;2024-03-02T12:50:01;5.55;;;0.90;;
21038;SDS011;10678;51.002;4.786;2024-03-02T12:52:28;4.07;;;1.00;;
21038;SDS011;10678;51.002;4.786;2024-03-02T12:54:54;4.47;;;0.82;;
21038;SDS011;10678;51.002;4.786;2024-03-02T12:57:26;6.32;;;1.10;;
21038;SDS011;10678;51.002;4.786;2024-03-02T13:00:03;4.68;;;1.13;;
21038;SDS011;10678;51.002;4.786;2024-03-02T13:02:39;6.45;;;1.27;;
21038;SDS011;10678;51.002;4.786;2024-03-02T13:05:06;5.95;;;1.40;;
21038;SDS011;10678;51.002;4.786;2024-03-02T13:07:36;8.93;;;1.67;;
21038;SDS011;10678;51.002;4.786;2024-03-02T13:10:02;6.15;;;2.20;;
21038;SDS011;10678;51.002;4.786;2024-03-02T13:12:29;8.30;;;1.67;;
21038;SDS011;10678;51.002;4.786;2024-03-02T13:14:57;7.78;;;1.10;;
21038;SDS011;10678;51.002;4.786;2024-03-02T13:17:23;6.35;;;1.00;;
21038;SDS011;10678;51.002;4.786;2024-03-02T13:19:52;4.30;;;0.88;;
21038;SDS011;10678;51.002;4.786;2024-03-02T13:22:22;3.13;;;0.80;;
21038;SDS011;10678;51.002;4.786;2024-03-02T13:24:48;6.18;;;0.93;;
21038;SDS011;10678;51.002;4.786;2024-03-02T13:27:19;7.47;;;0.95;;
21038;SDS011;10678;51.002;4.786;2024-03-02T13:29:45;8.50;;;1.00;;
21038;SDS011;10678;51.002;4.786;2024-03-02T13:32:15;6.72;;;0.90;;
21038;SDS011;10678;51.002;4.786;2024-03-02T13:34:41;8.73;;;1.20;;
21038;SDS011;10678;51.002;4.786;2024-03-02T13:37:07;5.63;;;1.08;;
21038;SDS011;10678;51.002;4.786;2024-03-02T13:39:33;4.55;;;0.70;;
21038;SDS011;10678;51.002;4.786;2024-03-02T13:42:04;4.80;;;0.90;;
21038;SDS011;10678;51.002;4.786;2024-03-02T13:44:33;1.75;;;0.50;;
21038;SDS011;10678;51.002;4.786;2024-03-02T13:46:59;3.05;;;0.90;;
21038;SDS011;10678;51.002;4.786;2024-03-02T13:49:26;6.20;;;1.40;;
21038;SDS011;10678;51.002;4.786;2024-03-02T13:52:07;5.60;;;1.00;;
21038;SDS011;10678;51.002;4.786;2024-03-02T13:54:38;3.60;;;0.63;;
21038;SDS011;10678;51.002;4.786;2024-03-02T13:57:08;2.83;;;0.73;;
21038;SDS011;10678;51.002;4.786;2024-03-02T13:59:34;5.32;;;1.20;;
21038;SDS011;10678;51.002;4.786;2024-03-02T14:02:01;4.55;;;0.70;;
21038;SDS011;10678;51.002;4.786;2024-03-02T14:04:29;2.65;;;1.08;;
21038;SDS011;10678;51.002;4.786;2024-03-02T14:06:58;5.30;;;1.00;;
21038;SDS011;10678;51.002;4.786;2024-03-02T14:09:24;5.60;;;0.63;;
21038;SDS011;10678;51.002;4.786;2024-03-02T14:11:50;6.43;;;0.90;;
21038;SDS011;10678;51.002;4.786;2024-03-02T14:14:16;2.92;;;0.90;;
21038;SDS011;10678;51.002;4.786;2024-03-02T14:16:42;3.53;;;0.70;;
21038;SDS011;10678;51.002;4.786;2024-03-02T14:19:09;4.00;;;0.73;;
21038;SDS011;10678;51.002;4.786;2024-03-02T14:21:35;3.45;;;0.90;;
21038;SDS011;10678;51.002;4.786;2024-03-02T14:24:03;5.25;;;0.95;;
21038;SDS011;10678;51.002;4.786;2024-03-02T14:26:29;3.60;;;0.93;;
21038;SDS011;10678;51.002;4.786;2024-03-02T14:28:55;3.55;;;0.82;;
21038;SDS011;10678;51.002;4.786;2024-03-02T14:31:21;2.95;;;0.60;;
21038;SDS011;10678;51.002;4.786;2024-03-02T14:33:46;4.05;;;0.70;;
21038;SDS011;10678;51.002;4.786;2024-03-02T14:36:12;2.33;;;0.55;;
21038;SDS011;10678;51.002;4.786;2024-03-02T14:38:38;1.80;;;0.50;;
21038;SDS011;10678;51.002;4.786;2024-03-02T14:41:04;5.55;;;0.95;;
21038;SDS011;10678;51.002;4.786;2024-03-02T14:43:30;1.92;;;0.70;;
21038;SDS011;10678;51.002;4.786;2024-03-02T14:45:56;2.03;;;0.63;;
21038;SDS011;10678;51.002;4.786;2024-03-02T14:48:23;1.65;;;0.52;;
21038;SDS011;10678;51.002;4.786;2024-03-02T14:50:49;2.17;;;0.63;;
21038;SDS011;10678;51.002;4.786;2024-03-02T14:53:16;4.93;;;0.82;;
21038;SDS011;10678;51.002;4.786;2024-03-02T14:55:41;2.78;;;0.75;;